Time;durP1;ratioP1;P1;durP2;ratioP2;P2;SDS_P1;SDS_P2;PMS_P1;PMS_P2;Temp;Humidity;BMP_temperature;BMP_pressure;BME280_temperature;BME280_humidity;BME280_pressure;Samples;Min_cycle;Max_cycle;Signal;HPM_P1;HPM_P2
2023/12/25 00:02:13;;;;;;;0.10;0.10;;;11.60;99.90;;;;;;5046732;28;20475;-79
2023/12/25 00:04:38;;;;;;;0.20;0.20;;;12.20;99.90;;;;;;5033969;28;20080;-78
2023/12/25 00:07:07;;;;;;;0.20;0.20;;;11.60;99.90;;;;;;5036668;28;20068;-79
2023/12/25 00:09:33;;;;;;;0.20;0.20;;;11.60;99.90;;;;;;5037782;28;20062;-78
2023/12/25 00:11:58;;;;;;;0.10;0.10;;;11.60;99.90;;;;;;5043595;28;20128;-78
2023/12/25 00:14:24;;;;;;;0.20;0.20;;;11.60;99.90;;;;;;5030615;28;20545;-79
2023/12/25 00:16:49;;;;;;;0.20;0.20;;;11.60;99.90;;;;;;5048068;28;20044;-79
2023/12/25 00:19:15;;;;;;;0.20;0.20;;;11.60;99.90;;;;;;5036656;28;20132;-78
2023/12/25 00:21:41;;;;;;;0.20;0.20;;;11.60;99.90;;;;;;5045471;28;20404;-77
2023/12/25 00:24:07;;;;;;;0.20;0.20;;;11.60;99.90;;;;;;5032175;28;20190;-78
2023/12/25 00:26:32;;;;;;;0.20;0.20;;;11.60;99.90;;;;;;5038814;28;20048;-78
2023/12/25 00:28:58;;;;;;;0.10;0.10;;;11.60;99.90;;;;;;5045473;28;20052;-78
2023/12/25 00:31:23;;;;;;;0.10;0.10;;;11.60;99.90;;;;;;5049460;28;20033;-79
2023/12/25 00:33:49;;;;;;;0.20;0.20;;;11.60;99.90;;;;;;5043373;28;20059;-78
2023/12/25 00:36:15;;;;;;;0.20;0.20;;;11.60;99.90;;;;;;5047272;28;20117;-79
2023/12/25 00:38:41;;;;;;;0.20;0.20;;;11.60;99.90;;;;;;5050130;28;20048;-79
2023/12/25 00:41:06;;;;;;;0.20;0.20;;;11.60;99.90;;;;;;5043874;28;20516;-78
2023/12/25 00:43:32;;;;;;;0.20;0.20;;;11.60;99.90;;;;;;5044804;28;20037;-79
2023/12/25 00:45:58;;;;;;;0.20;0.20;;;11.60;99.90;;;;;;5046982;28;20044;-79
2023/12/25 00:48:23;;;;;;;0.20;0.20;;;11.60;99.90;;;;;;5050260;28;20477;-78
2023/12/25 00:50:49;;;;;;;0.10;0.10;;;11.60;99.90;;;;;;5044903;28;20086;-78
2023/12/25 00:53:15;;;;;;;0.20;0.20;;;11.70;99.90;;;;;;5041747;28;20049;-78
2023/12/25 00:55:40;;;;;;;0.20;0.20;;;11.60;99.90;;;;;;5041757;28;20049;-78
2023/12/25 00:58:06;;;;;;;0.10;0.10;;;11.60;99.90;;;;;;5037687;28;20387;-78
2023/12/25 01:00:32;;;;;;;0.20;0.20;;;11.60;99.90;;;;;;5045794;28;20695;-77
2023/12/25 01:02:58;;;;;;;0.10;0.10;;;11.60;99.90;;;;;;5048825;28;20412;-79
2023/12/25 01:05:24;;;;;;;0.20;0.20;;;11.60;99.90;;;;;;5049342;28;20037;-80
2023/12/25 01:07:49;;;;;;;0.15;0.15;;;11.90;99.90;;;;;;5047484;28;20048;-78
2023/12/25 01:10:15;;;;;;;0.20;0.20;;;11.60;99.90;;;;;;5046003;28;20406;-78
2023/12/25 01:12:41;;;;;;;0.20;0.20;;;11.60;99.90;;;;;;5040259;28;20056;-78
2023/12/25 01:15:07;;;;;;;0.17;0.17;;;11.50;99.90;;;;;;5046132;28;20466;-78
2023/12/25 01:17:32;;;;;;;0.13;0.13;;;11.50;99.90;;;;;;5048073;28;20025;-78
2023/12/25 01:19:58;;;;;;;0.20;0.20;;;11.50;99.90;;;;;;5037337;28;20420;-77
2023/12/25 01:22:24;;;;;;;0.20;0.20;;;11.50;99.90;;;;;;5045638;28;20125;-78
2023/12/25 01:24:49;;;;;;;0.20;0.20;;;11.40;99.90;;;;;;5040488;28;20052;-78
2023/12/25 01:27:15;;;;;;;0.10;0.10;;;11.40;99.90;;;;;;5049236;28;20048;-78
2023/12/25 01:29:41;;;;;;;0.10;0.10;;;11.40;99.90;;;;;;5031690;28;20037;-79
2023/12/25 01:32:06;;;;;;;0.20;0.20;;;11.40;99.90;;;;;;5044417;28;20498;-79
2023/12/25 01:34:32;;;;;;;0.20;0.20;;;11.40;99.90;;;;;;5044590;28;20059;-78
2023/12/25 01:36:57;;;;;;;0.10;0.10;;;11.40;99.90;;;;;;5046993;28;20500;-78
2023/12/25 01:39:23;;;;;;;0.10;0.10;;;11.30;99.90;;;;;;5039882;28;20052;-77
2023/12/25 01:41:49;;;;;;;0.20;0.20;;;11.30;99.90;;;;;;5045313;28;20036;-77
2023/12/25 01:44:14;;;;;;;0.10;0.10;;;11.30;99.90;;;;;;5050150;28;20044;-79
2023/12/25 01:46:41;;;;;;;0.20;0.20;;;11.30;99.90;;;;;;5049552;28;20168;-77
2023/12/25 01:49:07;;;;;;;0.20;0.20;;;11.30;99.90;;;;;;5046869;28;20072;-78
2023/12/25 01:51:34;;;;;;;0.20;0.20;;;11.30;99.90;;;;;;5038410;28;20044;-79
2023/12/25 01:54:02;;;;;;;0.17;0.17;;;11.20;99.90;;;;;;5047239;28;20462;-78
2023/12/25 01:56:28;;;;;;;0.20;0.20;;;11.20;99.90;;;;;;5045986;28;20052;-78
2023/12/25 01:58:53;;;;;;;0.17;0.17;;;11.20;99.90;;;;;;5040277;28;20140;-79
2023/12/25 02:01:19;;;;;;;0.20;0.20;;;11.10;99.90;;;;;;5041388;28;20235;-78
2023/12/25 02:03:45;;;;;;;0.10;0.10;;;11.30;99.90;;;;;;5042788;28;20051;-78
2023/12/25 02:06:12;;;;;;;0.20;0.20;;;11.10;99.90;;;;;;5051417;28;20048;-78
2023/12/25 02:08:38;;;;;;;0.10;0.10;;;11.10;99.90;;;;;;5046695;28;20041;-79
2023/12/25 02:11:04;;;;;;;0.10;0.10;;;11.10;99.90;;;;;;5044175;28;20411;-79
2023/12/25 02:13:30;;;;;;;0.10;0.10;;;11.10;99.90;;;;;;5048455;28;20057;-79
2023/12/25 02:15:56;;;;;;;0.20;0.20;;;11.00;99.90;;;;;;5035254;28;20037;-78
2023/12/25 02:18:22;;;;;;;0.10;0.10;;;11.00;99.90;;;;;;5051171;28;20040;-79
2023/12/25 02:20:48;;;;;;;0.20;0.20;;;11.00;99.90;;;;;;5045771;28;20293;-79
2023/12/25 02:23:16;;;;;;;0.13;0.13;;;10.90;99.90;;;;;;5044057;28;20049;-79
2023/12/25 02:26:08;;;;;;;0.20;0.20;;;10.90;99.90;;;;;;5047565;28;20049;-79
2023/12/25 02:28:34;;;;;;;0.20;0.20;;;10.90;99.90;;;;;;5045010;28;20056;-80
2023/12/25 02:31:00;;;;;;;0.10;0.10;;;11.00;99.90;;;;;;5049857;28;20045;-79
2023/12/25 02:33:26;;;;;;;0.10;0.10;;;10.90;99.90;;;;;;5040849;28;20419;-78
2023/12/25 02:35:52;;;;;;;0.20;0.20;;;10.90;99.90;;;;;;5043037;28;20634;-78
2023/12/25 02:38:17;;;;;;;0.13;0.13;;;10.90;99.90;;;;;;5050565;28;20053;-78
2023/12/25 02:40:43;;;;;;;0.20;0.20;;;11.00;99.90;;;;;;5048013;28;20124;-80
2023/12/25 02:43:10;;;;;;;0.20;0.20;;;10.90;99.90;;;;;;5049533;28;20152;-79
2023/12/25 02:45:36;;;;;;;0.20;0.20;;;10.90;99.90;;;;;;5051540;28;20047;-78
2023/12/25 02:48:02;;;;;;;0.20;0.20;;;10.90;99.90;;;;;;5048317;28;20127;-78
2023/12/25 02:50:27;;;;;;;0.20;0.20;;;10.90;99.90;;;;;;5035282;28;20527;-78
2023/12/25 02:52:53;;;;;;;0.10;0.10;;;10.90;99.90;;;;;;5049623;28;20082;-79
2023/12/25 02:55:19;;;;;;;0.20;0.20;;;11.10;99.90;;;;;;5050802;28;20043;-79
2023/12/25 02:57:44;;;;;;;0.20;0.20;;;11.00;99.90;;;;;;5039154;28;20045;-78
2023/12/25 03:00:10;;;;;;;0.20;0.20;;;10.80;99.90;;;;;;5048629;28;20056;-78
2023/12/25 03:02:36;;;;;;;0.10;0.10;;;10.80;99.90;;;;;;5048193;28;20045;-78
2023/12/25 03:05:02;;;;;;;0.10;0.10;;;10.70;99.90;;;;;;5037989;28;20056;-79
2023/12/25 03:07:27;;;;;;;0.10;0.10;;;10.80;99.90;;;;;;5032498;28;20082;-78
2023/12/25 03:09:53;;;;;;;0.20;0.20;;;10.90;99.90;;;;;;5043324;28;20400;-78
2023/12/25 03:12:19;;;;;;;0.20;0.20;;;10.90;99.90;;;;;;5042702;28;20060;-79
2023/12/25 03:14:44;;;;;;;0.20;0.20;;;10.80;99.90;;;;;;5066536;28;20041;-78
2023/12/25 03:17:10;;;;;;;0.20;0.20;;;10.80;99.90;;;;;;5046408;28;20052;-78
2023/12/25 03:19:35;;;;;;;0.20;0.20;;;10.80;99.90;;;;;;5043182;28;20051;-79
2023/12/25 03:22:01;;;;;;;0.13;0.13;;;10.80;99.90;;;;;;5042659;28;20033;-79
2023/12/25 03:24:27;;;;;;;0.20;0.20;;;10.90;99.90;;;;;;5046689;28;20393;-78
2023/12/25 03:26:52;;;;;;;0.10;0.10;;;11.00;99.90;;;;;;5045763;28;20442;-79
2023/12/25 03:29:18;;;;;;;0.20;0.20;;;10.90;99.90;;;;;;5039279;28;20044;-79
2023/12/25 03:31:44;;;;;;;0.20;0.20;;;10.90;99.90;;;;;;5051465;28;20041;-78
2023/12/25 03:34:18;;;;;;;0.20;0.20;;;10.80;99.90;;;;;;5046698;28;20484;-78
2023/12/25 03:36:44;;;;;;;0.20;0.20;;;10.90;99.90;;;;;;5046892;28;20495;-77
2023/12/25 03:39:10;;;;;;;0.20;0.20;;;10.90;99.90;;;;;;5037504;28;20048;-79
2023/12/25 03:41:36;;;;;;;0.10;0.10;;;10.80;99.90;;;;;;5080872;28;20036;-79
2023/12/25 03:44:01;;;;;;;0.20;0.20;;;10.90;99.90;;;;;;5043467;28;20125;-79
2023/12/25 03:46:27;;;;;;;0.17;0.17;;;10.80;99.90;;;;;;5049727;28;20075;-78
2023/12/25 03:48:52;;;;;;;5.72;0.35;;;10.80;99.90;;;;;;5041690;28;20056;-79
2023/12/25 03:51:18;;;;;;;0.20;0.20;;;10.80;99.90;;;;;;5049719;28;20040;-78
2023/12/25 03:53:44;;;;;;;0.10;0.10;;;10.80;99.90;;;;;;5045242;28;20037;-78
2023/12/25 03:56:11;;;;;;;0.20;0.20;;;10.80;99.90;;;;;;5037918;28;20053;-78
2023/12/25 03:58:37;;;;;;;0.10;0.10;;;10.80;99.90;;;;;;5046979;28;20049;-78
2023/12/25 04:01:03;;;;;;;0.20;0.20;;;10.70;99.90;;;;;;5032041;28;20273;-77
2023/12/25 04:03:28;;;;;;;0.10;0.10;;;10.70;99.90;;;;;;5042756;28;20115;-77
2023/12/25 04:05:54;;;;;;;0.20;0.20;;;10.70;99.90;;;;;;5049952;28;20048;-78
2023/12/25 04:08:19;;;;;;;0.10;0.10;;;10.70;99.90;;;;;;5048941;28;20389;-78
2023/12/25 04:10:45;;;;;;;0.20;0.20;;;10.70;99.90;;;;;;5042140;28;20056;-78
2023/12/25 04:13:11;;;;;;;0.17;0.17;;;10.70;99.90;;;;;;5046426;28;20045;-78
2023/12/25 04:15:36;;;;;;;0.17;0.17;;;10.70;99.90;;;;;;5047586;28;20122;-78
2023/12/25 04:18:02;;;;;;;0.20;0.20;;;10.70;99.90;;;;;;5046125;28;20037;-78
2023/12/25 04:20:28;;;;;;;0.10;0.10;;;10.70;99.90;;;;;;5040231;28;20040;-77
2023/12/25 04:22:53;;;;;;;0.20;0.20;;;10.80;99.90;;;;;;5035081;28;20122;-77
2023/12/25 04:25:19;;;;;;;0.20;0.20;;;10.70;99.90;;;;;;5048349;28;21036;-77
2023/12/25 04:27:44;;;;;;;0.20;0.20;;;10.70;99.90;;;;;;5047026;28;20049;-77
2023/12/25 04:30:10;;;;;;;0.20;0.20;;;10.70;99.90;;;;;;5040095;28;20488;-77
2023/12/25 04:32:36;;;;;;;0.20;0.20;;;10.70;99.90;;;;;;5048543;28;20095;-78
2023/12/25 04:35:02;;;;;;;0.20;0.20;;;10.60;99.90;;;;;;5048512;28;20094;-78
2023/12/25 04:37:27;;;;;;;0.10;0.10;;;10.70;99.90;;;;;;5049633;28;20447;-78
2023/12/25 04:39:53;;;;;;;0.10;0.10;;;10.70;99.90;;;;;;5043538;28;20037;-79
2023/12/25 04:42:19;;;;;;;0.20;0.20;;;10.70;99.90;;;;;;5038811;28;20376;-79
2023/12/25 04:44:44;;;;;;;0.20;0.20;;;10.70;99.90;;;;;;5035792;28;20396;-79
2023/12/25 04:47:10;;;;;;;0.20;0.20;;;10.70;99.90;;;;;;5043442;28;20353;-79
2023/12/25 04:49:35;;;;;;;0.20;0.20;;;10.70;99.90;;;;;;5046679;28;20052;-80
2023/12/25 04:52:01;;;;;;;0.13;0.13;;;10.90;99.90;;;;;;5045983;28;20054;-79
2023/12/25 04:54:27;;;;;;;0.10;0.10;;;10.70;99.90;;;;;;5046446;28;20045;-78
2023/12/25 04:56:56;;;;;;;0.20;0.20;;;10.70;99.90;;;;;;5039344;28;20048;-78
2023/12/25 04:59:22;;;;;;;0.20;0.20;;;10.70;99.90;;;;;;5045862;28;20049;-79
2023/12/25 05:01:51;;;;;;;0.10;0.10;;;10.70;99.90;;;;;;5041231;28;20488;-79
2023/12/25 05:04:17;;;;;;;0.20;0.20;;;10.80;99.90;;;;;;5040657;28;20488;-79
2023/12/25 05:06:42;;;;;;;0.10;0.10;;;10.70;99.90;;;;;;5037632;28;20039;-78
2023/12/25 05:09:08;;;;;;;0.10;0.10;;;10.70;99.90;;;;;;5041658;28;20423;-78
2023/12/25 05:11:34;;;;;;;0.10;0.10;;;10.70;99.90;;;;;;5044168;28;20084;-78
2023/12/25 05:14:00;;;;;;;0.10;0.10;;;10.70;99.90;;;;;;5046407;28;20090;-78
2023/12/25 05:16:26;;;;;;;0.20;0.20;;;10.60;99.90;;;;;;5052267;28;20040;-78
2023/12/25 05:18:51;;;;;;;0.20;0.20;;;10.60;99.90;;;;;;5051311;28;20073;-78
2023/12/25 05:21:17;;;;;;;0.17;0.17;;;10.70;99.90;;;;;;5043005;28;20044;-78
2023/12/25 05:23:43;;;;;;;0.20;0.20;;;10.60;99.90;;;;;;5038784;28;20055;-78
2023/12/25 05:26:09;;;;;;;0.10;0.10;;;10.50;99.90;;;;;;5046117;28;20068;-78
2023/12/25 05:28:35;;;;;;;0.20;0.20;;;10.50;99.90;;;;;;5048570;28;20559;-78
2023/12/25 05:31:00;;;;;;;0.20;0.20;;;10.50;99.90;;;;;;5043948;28;20404;-78
2023/12/25 05:33:26;;;;;;;0.20;0.20;;;10.50;99.90;;;;;;5053129;28;20040;-78
2023/12/25 05:35:52;;;;;;;0.10;0.10;;;10.40;99.90;;;;;;5051419;28;20245;-77
2023/12/25 05:38:17;;;;;;;0.10;0.10;;;10.40;99.90;;;;;;5044038;28;20045;-79
2023/12/25 05:40:43;;;;;;;0.10;0.10;;;10.50;99.90;;;;;;5044388;28;20401;-78
2023/12/25 05:43:10;;;;;;;0.10;0.10;;;10.60;99.90;;;;;;5039941;28;20056;-78
2023/12/25 05:45:38;;;;;;;0.10;0.10;;;10.60;99.90;;;;;;5052786;28;20049;-78
2023/12/25 05:48:04;;;;;;;0.10;0.10;;;10.30;99.90;;;;;;5051406;28;20129;-79
2023/12/25 05:50:29;;;;;;;0.20;0.20;;;10.30;99.90;;;;;;5048955;28;20131;-79
2023/12/25 05:52:55;;;;;;;0.17;0.17;;;10.40;99.90;;;;;;5043753;28;20560;-78
2023/12/25 05:55:21;;;;;;;0.10;0.10;;;9.90;99.90;;;;;;5039672;28;20078;-78
2023/12/25 05:57:47;;;;;;;0.10;0.10;;;10.30;99.90;;;;;;5047828;28;20114;-79
2023/12/25 06:00:13;;;;;;;0.20;0.20;;;10.40;99.90;;;;;;5042517;28;20051;-78
2023/12/25 06:02:39;;;;;;;0.30;0.30;;;10.30;99.90;;;;;;5051984;28;20063;-78
2023/12/25 06:05:05;;;;;;;0.20;0.20;;;10.10;99.90;;;;;;5051659;28;20408;-79
2023/12/25 06:07:30;;;;;;;0.20;0.20;;;10.20;99.90;;;;;;5047885;28;20045;-79
2023/12/25 06:09:56;;;;;;;0.10;0.10;;;10.20;99.90;;;;;;5042840;28;20052;-78
2023/12/25 06:12:21;;;;;;;0.13;0.13;;;10.20;99.90;;;;;;5042633;28;20595;-79
2023/12/25 06:14:47;;;;;;;0.20;0.20;;;10.20;99.90;;;;;;5052612;28;20569;-79
2023/12/25 06:17:13;;;;;;;0.10;0.10;;;10.10;99.90;;;;;;5049925;28;20040;-79
2023/12/25 06:19:38;;;;;;;0.10;0.10;;;10.10;99.90;;;;;;5051714;28;20040;-79
2023/12/25 06:22:04;;;;;;;0.10;0.10;;;10.10;99.90;;;;;;5047390;28;20207;-79
2023/12/25 06:24:29;;;;;;;0.10;0.10;;;10.10;99.90;;;;;;5045975;28;20507;-78
2023/12/25 06:26:55;;;;;;;0.20;0.20;;;10.00;99.90;;;;;;5044521;28;20487;-79
2023/12/25 06:29:21;;;;;;;0.10;0.10;;;10.10;99.90;;;;;;5048849;28;20178;-79
2023/12/25 06:31:47;;;;;;;0.10;0.10;;;10.10;99.90;;;;;;5046197;28;20127;-79
2023/12/25 06:34:12;;;;;;;0.13;0.13;;;10.00;99.90;;;;;;5047970;28;20048;-78
2023/12/25 06:36:38;;;;;;;0.10;0.10;;;10.00;99.90;;;;;;5051350;28;20051;-78
2023/12/25 06:39:04;;;;;;;0.10;0.10;;;10.00;99.90;;;;;;5068423;28;20051;-79
2023/12/25 06:41:29;;;;;;;0.20;0.20;;;10.00;99.90;;;;;;5049857;28;20048;-79
2023/12/25 06:43:55;;;;;;;0.10;0.10;;;10.00;99.90;;;;;;5049986;28;20041;-79
2023/12/25 06:46:20;;;;;;;0.15;0.15;;;10.00;99.90;;;;;;5050806;28;20158;-77
2023/12/25 06:48:46;;;;;;;0.20;0.20;;;10.00;99.90;;;;;;5048047;28;20106;-78
2023/12/25 06:51:12;;;;;;;0.20;0.20;;;9.90;99.90;;;;;;5046548;28;20040;-79
2023/12/25 06:53:37;;;;;;;0.10;0.10;;;10.00;99.90;;;;;;5052406;28;20053;-80
2023/12/25 06:56:04;;;;;;;0.20;0.20;;;10.00;99.90;;;;;;5039974;28;20328;-79
2023/12/25 06:58:30;;;;;;;0.20;0.20;;;10.00;99.90;;;;;;5052296;28;20407;-80
2023/12/25 07:00:55;;;;;;;0.20;0.20;;;10.00;99.90;;;;;;5050836;28;20052;-79
2023/12/25 07:03:21;;;;;;;0.10;0.10;;;10.00;99.90;;;;;;5051162;28;20051;-81
2023/12/25 07:05:48;;;;;;;0.20;0.20;;;10.20;99.90;;;;;;5045475;28;20377;-80
2023/12/25 07:08:14;;;;;;;0.20;0.20;;;10.00;99.90;;;;;;5045925;28;20170;-79
2023/12/25 07:10:39;;;;;;;0.20;0.20;;;10.00;99.90;;;;;;5047310;28;20531;-81
2023/12/25 07:13:05;;;;;;;0.17;0.17;;;10.10;99.90;;;;;;5049849;28;20131;-81
2023/12/25 07:15:33;;;;;;;0.10;0.10;;;10.10;99.90;;;;;;5050282;28;20064;-81
2023/12/25 07:17:58;;;;;;;0.10;0.10;;;10.10;99.90;;;;;;5045433;28;20032;-79
2023/12/25 07:20:24;;;;;;;0.15;0.15;;;10.10;99.90;;;;;;5048788;28;20537;-79
2023/12/25 07:22:50;;;;;;;0.15;0.15;;;10.10;99.90;;;;;;5043390;28;20045;-80
2023/12/25 07:25:15;;;;;;;0.10;0.10;;;10.10;99.90;;;;;;5045502;28;20052;-79
2023/12/25 07:27:41;;;;;;;0.20;0.20;;;10.00;99.90;;;;;;5049348;28;20391;-80
2023/12/25 07:30:07;;;;;;;0.52;0.52;;;10.00;99.90;;;;;;5049974;28;20036;-80
2023/12/25 07:32:33;;;;;;;0.20;0.20;;;10.00;99.90;;;;;;5050407;28;20127;-78
2023/12/25 07:34:58;;;;;;;0.10;0.10;;;10.10;99.90;;;;;;5047662;28;20048;-79
2023/12/25 07:37:24;;;;;;;0.10;0.10;;;10.00;99.90;;;;;;5048727;28;20445;-80
2023/12/25 07:39:49;;;;;;;0.20;0.20;;;10.00;99.90;;;;;;5047955;28;20040;-80
2023/12/25 07:42:15;;;;;;;0.17;0.17;;;10.00;99.90;;;;;;5042292;28;20044;-81
2023/12/25 07:44:42;;;;;;;0.20;0.20;;;10.00;99.90;;;;;;5049048;28;20806;-80
2023/12/25 07:47:07;;;;;;;0.10;0.10;;;9.90;99.90;;;;;;5039697;28;20571;-79
2023/12/25 07:49:33;;;;;;;0.20;0.20;;;10.00;99.90;;;;;;5043650;28;20120;-80
2023/12/25 07:51:59;;;;;;;0.20;0.20;;;10.00;99.90;;;;;;5032277;28;20148;-80
2023/12/25 07:54:24;;;;;;;0.10;0.10;;;10.10;99.90;;;;;;5037790;28;20047;-80
2023/12/25 07:56:50;;;;;;;0.20;0.20;;;10.00;99.90;;;;;;5048096;28;20445;-81
2023/12/25 07:59:20;;;;;;;0.10;0.10;;;10.00;99.90;;;;;;5045404;28;20639;-80
2023/12/25 08:01:46;;;;;;;0.20;0.20;;;10.00;99.90;;;;;;5042030;28;20052;-80
2023/12/25 08:04:11;;;;;;;0.20;0.20;;;10.00;99.90;;;;;;5043054;28;20036;-80
2023/12/25 08:06:37;;;;;;;0.13;0.13;;;10.00;99.90;;;;;;5048670;28;20395;-80
2023/12/25 08:09:03;;;;;;;0.20;0.20;;;9.90;99.90;;;;;;5050248;28;20047;-80
2023/12/25 08:11:28;;;;;;;0.17;0.17;;;9.80;99.90;;;;;;5049466;28;20044;-80
2023/12/25 08:13:54;;;;;;;0.20;0.20;;;9.70;99.90;;;;;;5036316;28;20139;-79
2023/12/25 08:16:20;;;;;;;0.20;0.20;;;9.90;99.90;;;;;;5049638;28;20355;-80
2023/12/25 08:18:46;;;;;;;0.20;0.20;;;9.60;99.90;;;;;;5051461;28;20072;-80
2023/12/25 08:21:12;;;;;;;0.20;0.20;;;9.60;99.90;;;;;;5049641;28;20488;-80
2023/12/25 08:23:40;;;;;;;0.20;0.20;;;9.50;99.90;;;;;;5046283;28;20084;-80
2023/12/25 08:26:05;;;;;;;0.20;0.20;;;9.50;99.90;;;;;;5040111;28;20056;-80
2023/12/25 08:28:31;;;;;;;0.20;0.20;;;9.50;99.90;;;;;;5047491;28;20036;-80
2023/12/25 08:30:56;;;;;;;0.10;0.10;;;9.40;99.90;;;;;;5045872;28;20073;-81
2023/12/25 08:33:22;;;;;;;0.10;0.10;;;9.40;99.90;;;;;;5031673;28;20037;-80
2023/12/25 08:35:48;;;;;;;0.10;0.10;;;9.30;99.90;;;;;;5032497;28;20045;-80
2023/12/25 08:38:13;;;;;;;0.10;0.10;;;9.50;99.90;;;;;;5030346;28;20045;-81
2023/12/25 08:40:39;;;;;;;0.10;0.10;;;9.30;99.90;;;;;;5044193;28;20047;-80
2023/12/25 08:43:05;;;;;;;0.20;0.20;;;9.30;99.90;;;;;;5029812;28;20103;-80
2023/12/25 08:45:31;;;;;;;0.20;0.20;;;9.30;99.90;;;;;;5034441;28;20045;-80
2023/12/25 08:47:57;;;;;;;0.10;0.10;;;9.20;99.90;;;;;;5050767;28;20037;-80
2023/12/25 08:50:22;;;;;;;0.10;0.10;;;9.20;99.90;;;;;;5049325;28;20059;-80
2023/12/25 08:52:48;;;;;;;0.20;0.20;;;9.20;99.90;;;;;;5046611;28;20051;-80
2023/12/25 08:55:14;;;;;;;0.20;0.20;;;9.70;99.90;;;;;;5064775;28;20052;-80
2023/12/25 08:57:39;;;;;;;0.20;0.20;;;9.20;99.90;;;;;;5053775;28;20052;-80
2023/12/25 09:00:06;;;;;;;0.20;0.20;;;9.50;99.90;;;;;;5052274;28;20044;-81
2023/12/25 09:02:32;;;;;;;0.20;0.20;;;9.20;99.90;;;;;;5055549;28;20044;-80
2023/12/25 09:04:57;;;;;;;0.15;0.15;;;9.20;99.90;;;;;;5054389;28;20393;-80
2023/12/25 09:07:23;;;;;;;0.20;0.20;;;9.20;99.90;;;;;;5051323;28;20045;-80
2023/12/25 09:09:49;;;;;;;0.10;0.10;;;9.20;99.90;;;;;;5042803;28;20487;-80
2023/12/25 09:12:14;;;;;;;0.15;0.15;;;9.20;99.90;;;;;;5053584;28;20078;-81
2023/12/25 09:14:40;;;;;;;0.20;0.20;;;9.20;99.90;;;;;;5049221;28;20488;-80
2023/12/25 09:17:06;;;;;;;0.20;0.20;;;9.20;99.90;;;;;;5040423;28;20055;-80
2023/12/25 09:19:31;;;;;;;0.10;0.10;;;9.20;99.90;;;;;;5053197;28;20090;-80
2023/12/25 09:21:58;;;;;;;0.20;0.20;;;9.20;99.90;;;;;;5053118;28;20395;-81
2023/12/25 09:24:24;;;;;;;0.20;0.20;;;9.20;99.90;;;;;;5057739;28;20127;-81
2023/12/25 09:26:51;;;;;;;0.10;0.10;;;9.20;99.90;;;;;;5041277;28;20650;-81
2023/12/25 09:29:17;;;;;;;0.20;0.20;;;9.20;99.90;;;;;;5052694;28;20079;-81
2023/12/25 09:31:42;;;;;;;0.20;0.20;;;9.20;99.90;;;;;;5054293;28;20125;-82
2023/12/25 09:34:08;;;;;;;0.10;0.10;;;9.20;99.90;;;;;;5052182;28;20555;-80
2023/12/25 09:36:34;;;;;;;0.20;0.20;;;9.20;99.90;;;;;;5054091;28;20262;-80
2023/12/25 09:38:59;;;;;;;0.10;0.10;;;9.30;99.90;;;;;;5045429;28;20051;-81
2023/12/25 09:41:26;;;;;;;0.20;0.20;;;9.30;99.90;;;;;;5049294;28;20093;-80
2023/12/25 09:43:54;;;;;;;0.20;0.20;;;9.30;99.90;;;;;;5037057;28;21545;-80
2023/12/25 09:46:20;;;;;;;0.20;0.20;;;9.30;99.90;;;;;;5048179;28;20079;-79
2023/12/25 09:48:47;;;;;;;0.20;0.20;;;9.40;99.90;;;;;;5040264;28;20161;-79
2023/12/25 09:51:16;;;;;;;0.20;0.20;;;9.40;99.90;;;;;;5041924;28;20080;-80
2023/12/25 09:53:43;;;;;;;0.20;0.20;;;9.40;99.90;;;;;;5039547;28;20254;-80
2023/12/25 09:56:11;;;;;;;0.20;0.20;;;9.30;99.90;;;;;;5044769;28;20325;-80
2023/12/25 09:58:39;;;;;;;0.10;0.10;;;9.40;99.90;;;;;;5047482;28;20087;-80
2023/12/25 10:01:05;;;;;;;0.10;0.10;;;9.40;99.90;;;;;;5047523;28;20044;-82
2023/12/25 10:03:37;;;;;;;0.10;0.10;;;9.40;99.90;;;;;;5060230;28;20496;-79
2023/12/25 10:06:02;;;;;;;0.20;0.20;;;9.40;99.90;;;;;;5051048;28;20052;-79
2023/12/25 10:08:29;;;;;;;0.15;0.15;;;9.30;99.90;;;;;;5054094;28;20036;-79
2023/12/25 10:10:55;;;;;;;0.20;0.20;;;9.40;99.90;;;;;;5047022;28;20067;-79
2023/12/25 10:13:23;;;;;;;0.20;0.20;;;8.90;99.90;;;;;;5050760;28;20248;-80
2023/12/25 10:15:50;;;;;;;0.20;0.20;;;9.40;99.90;;;;;;5050234;28;20123;-80
2023/12/25 10:18:16;;;;;;;0.20;0.20;;;9.40;99.90;;;;;;5052615;28;20052;-80
2023/12/25 10:20:58;;;;;;;0.15;0.15;;;9.50;99.90;;;;;;5049402;28;20037;-79
2023/12/25 10:23:34;;;;;;;0.20;0.20;;;9.50;99.90;;;;;;5038514;28;20051;-80
2023/12/25 10:26:02;;;;;;;0.10;0.10;;;9.60;99.90;;;;;;5040389;28;20545;-79
2023/12/25 10:28:30;;;;;;;0.10;0.10;;;9.60;99.90;;;;;;5041015;28;20041;-80
2023/12/25 10:31:03;;;;;;;0.17;0.17;;;9.60;99.90;;;;;;5049289;28;20039;-80
2023/12/25 10:33:30;;;;;;;0.20;0.20;;;9.70;99.90;;;;;;5052939;28;20076;-80
2023/12/25 10:36:10;;;;;;;0.20;0.20;;;9.80;99.90;;;;;;5052540;28;20048;-80
2023/12/25 10:38:38;;;;;;;0.20;0.20;;;9.70;99.90;;;;;;5052369;28;20052;-79
2023/12/25 10:41:19;;;;;;;0.10;0.10;;;9.80;99.90;;;;;;5050825;28;20135;-79
2023/12/25 10:43:53;;;;;;;0.20;0.20;;;9.80;99.90;;;;;;5068101;28;20132;-78
2023/12/25 10:46:36;;;;;;;0.10;0.10;;;9.70;99.90;;;;;;5026289;28;20051;-78
2023/12/25 10:49:04;;;;;;;0.10;0.10;;;9.70;99.90;;;;;;5049415;28;20391;-78
2023/12/25 10:51:35;;;;;;;0.10;0.10;;;9.70;99.90;;;;;;5048130;28;20052;-78
2023/12/25 10:54:02;;;;;;;0.20;0.20;;;9.70;99.90;;;;;;5047316;28;20041;-78
2023/12/25 10:56:31;;;;;;;0.20;0.20;;;9.80;99.90;;;;;;5052333;28;20436;-79
2023/12/25 10:59:12;;;;;;;0.10;0.10;;;9.70;99.90;;;;;;5048685;28;20392;-77
2023/12/25 11:01:39;;;;;;;0.20;0.20;;;9.80;99.90;;;;;;5048775;28;20110;-78
2023/12/25 11:04:05;;;;;;;0.20;0.20;;;9.90;99.90;;;;;;5044323;28;20052;-78
2023/12/25 11:06:32;;;;;;;0.17;0.17;;;10.00;99.90;;;;;;5051463;28;20035;-78
2023/12/25 11:08:58;;;;;;;0.10;0.10;;;10.10;99.90;;;;;;5050279;28;20441;-78
2023/12/25 11:11:24;;;;;;;0.10;0.10;;;10.20;99.90;;;;;;5048371;28;20056;-78
2023/12/25 11:13:49;;;;;;;0.20;0.20;;;10.20;99.90;;;;;;5050927;28;20484;-79
2023/12/25 11:16:16;;;;;;;0.15;0.15;;;10.20;99.90;;;;;;5048498;28;20077;-79
2023/12/25 11:18:42;;;;;;;0.20;0.20;;;10.30;99.90;;;;;;5047873;28;20102;-78
2023/12/25 11:21:11;;;;;;;0.20;0.20;;;10.20;99.90;;;;;;5047529;28;20040;-79
2023/12/25 11:23:43;;;;;;;0.20;0.20;;;10.30;99.90;;;;;;5046104;28;20056;-79
2023/12/25 11:26:12;;;;;;;0.20;0.20;;;10.40;99.90;;;;;;5044182;28;20920;-79
2023/12/25 11:28:42;;;;;;;0.20;0.20;;;10.30;99.90;;;;;;5041514;28;20041;-79
2023/12/25 11:31:12;;;;;;;0.13;0.13;;;11.00;99.90;;;;;;5046497;28;20033;-78
2023/12/25 11:33:47;;;;;;;0.20;0.20;;;10.30;99.90;;;;;;5044167;28;20120;-79
2023/12/25 11:36:14;;;;;;;0.20;0.20;;;10.30;99.90;;;;;;5037706;28;20187;-78
2023/12/25 11:38:47;;;;;;;0.20;0.20;;;10.30;99.90;;;;;;5047146;28;20049;-79
2023/12/25 11:41:17;;;;;;;0.20;0.20;;;10.30;99.90;;;;;;5045554;28;20056;-81
2023/12/25 11:43:43;;;;;;;0.10;0.10;;;10.30;99.90;;;;;;5044145;28;20485;-79
2023/12/25 11:46:21;;;;;;;0.17;0.17;;;10.30;99.90;;;;;;5043353;28;20488;-80
2023/12/25 11:48:47;;;;;;;0.10;0.10;;;10.30;99.90;;;;;;5031386;28;20045;-79
2023/12/25 11:51:25;;;;;;;0.20;0.20;;;10.40;99.90;;;;;;5028110;28;20053;-79
2023/12/25 11:54:00;;;;;;;0.20;0.20;;;10.30;99.90;;;;;;5038045;28;20050;-79
2023/12/25 11:56:31;;;;;;;0.10;0.10;;;10.30;99.90;;;;;;5035689;28;20080;-79
2023/12/25 11:58:57;;;;;;;0.20;0.20;;;10.30;99.90;;;;;;5043156;28;20147;-79
2023/12/25 12:01:23;;;;;;;0.20;0.20;;;10.30;99.90;;;;;;5044832;28;20427;-78
2023/12/25 12:03:50;;;;;;;0.20;0.20;;;10.30;99.90;;;;;;5042533;28;20049;-78
2023/12/25 12:06:17;;;;;;;0.10;0.10;;;10.30;99.90;;;;;;5040465;28;20032;-81
2023/12/25 12:08:43;;;;;;;0.20;0.20;;;10.30;99.90;;;;;;5041466;28;20056;-78
2023/12/25 12:11:10;;;;;;;0.20;0.20;;;10.40;99.90;;;;;;5044117;28;20524;-79
2023/12/25 12:13:36;;;;;;;0.20;0.20;;;10.30;99.90;;;;;;5043484;28;20049;-79
2023/12/25 12:16:06;;;;;;;0.10;0.10;;;10.30;99.90;;;;;;5041103;28;20413;-79
2023/12/25 12:18:32;;;;;;;0.20;0.20;;;10.40;99.90;;;;;;5040990;28;20544;-79
2023/12/25 12:20:58;;;;;;;0.20;0.20;;;10.40;99.90;;;;;;5034129;28;20044;-79
2023/12/25 12:23:27;;;;;;;0.20;0.20;;;10.40;99.90;;;;;;5041853;28;20527;-79
2023/12/25 12:25:52;;;;;;;0.20;0.20;;;10.40;99.90;;;;;;5045708;28;20526;-78
2023/12/25 12:28:18;;;;;;;0.20;0.20;;;10.40;99.90;;;;;;5043001;28;20179;-79
2023/12/25 12:30:44;;;;;;;0.17;0.17;;;10.50;99.90;;;;;;5031544;28;20486;-78
2023/12/25 12:33:11;;;;;;;0.20;0.20;;;10.50;99.90;;;;;;5045342;28;20044;-78
2023/12/25 12:35:39;;;;;;;0.10;0.10;;;10.50;99.90;;;;;;5049410;28;20365;-79
2023/12/25 12:38:04;;;;;;;0.20;0.20;;;10.50;99.90;;;;;;5044617;28;20144;-78
2023/12/25 12:40:30;;;;;;;0.20;0.20;;;10.40;99.90;;;;;;5048179;28;20041;-79
2023/12/25 12:42:56;;;;;;;0.20;0.20;;;10.50;99.90;;;;;;5045797;28;20480;-80
2023/12/25 12:45:22;;;;;;;0.20;0.20;;;10.40;99.90;;;;;;5047219;28;20397;-79
2023/12/25 12:47:50;;;;;;;0.20;0.20;;;10.50;99.90;;;;;;5047628;28;20052;-79